Time;durP1;ratioP1;P1;durP2;ratioP2;P2;SDS_P1;SDS_P2;PMS_P1;PMS_P2;Temp;Humidity;BMP_temperature;BMP_pressure;BME280_temperature;BME280_humidity;BME280_pressure;Samples;Min_cycle;Max_cycle;Signal;HPM_P1;HPM_P2
2023/09/06 00:01:36;;;;;;;15.23;12.43;;;18.10;99.90;;;;;;5053546;28;20044;-66
2023/09/06 00:04:01;;;;;;;19.20;13.10;;;18.10;99.90;;;;;;5035119;28;20048;-66
2023/09/06 00:06:27;;;;;;;13.10;11.70;;;18.10;99.90;;;;;;5035183;28;20037;-66
2023/09/06 00:08:53;;;;;;;15.70;13.13;;;18.10;99.90;;;;;;5035924;28;20102;-66
2023/09/06 00:11:19;;;;;;;15.45;13.48;;;18.10;99.90;;;;;;5034660;28;20064;-66
2023/09/06 00:13:44;;;;;;;17.08;13.88;;;18.10;99.90;;;;;;5053247;28;20039;-66
2023/09/06 00:16:10;;;;;;;16.50;14.55;;;18.10;99.90;;;;;;5035469;28;20512;-66
2023/09/06 00:18:37;;;;;;;15.57;13.98;;;18.10;99.90;;;;;;5052610;28;20167;-66
2023/09/06 00:21:05;;;;;;;16.40;14.02;;;18.10;99.90;;;;;;5052479;28;20045;-66
2023/09/06 00:23:32;;;;;;;15.35;13.70;;;18.00;99.90;;;;;;5052155;28;20409;-66
2023/09/06 00:25:58;;;;;;;18.80;14.90;;;18.00;99.90;;;;;;5051930;28;20044;-66
2023/09/06 00:28:26;;;;;;;19.00;16.90;;;17.90;99.90;;;;;;5041627;28;20040;-66
2023/09/06 00:30:57;;;;;;;18.60;15.35;;;18.00;99.90;;;;;;5051920;28;20048;-66
2023/09/06 00:33:23;;;;;;;16.05;14.23;;;17.90;99.90;;;;;;5038579;28;20032;-66
2023/09/06 00:35:49;;;;;;;15.23;13.60;;;17.90;99.90;;;;;;5052853;28;20037;-66
2023/09/06 00:38:15;;;;;;;16.63;14.98;;;18.00;99.90;;;;;;5050682;28;20040;-68
2023/09/06 00:40:41;;;;;;;19.35;15.82;;;17.90;99.90;;;;;;5051298;28;20083;-66
2023/09/06 00:43:08;;;;;;;19.83;17.83;;;18.00;99.90;;;;;;5051448;28;20556;-66
2023/09/06 00:45:44;;;;;;;19.65;17.50;;;17.90;99.90;;;;;;5052101;28;20037;-66
2023/09/06 00:48:30;;;;;;;17.33;15.52;;;17.90;99.90;;;;;;5052485;28;20064;-66
2023/09/06 00:50:57;;;;;;;19.45;17.48;;;18.00;99.90;;;;;;5017894;28;20081;-66
2023/09/06 00:53:25;;;;;;;18.58;16.67;;;17.90;99.90;;;;;;5017619;28;20045;-66
2023/09/06 00:55:51;;;;;;;19.58;17.60;;;17.90;99.90;;;;;;5052343;28;20048;-66
2023/09/06 00:58:19;;;;;;;19.27;17.17;;;17.90;99.90;;;;;;5034771;28;20053;-66
2023/09/06 01:00:46;;;;;;;18.17;15.57;;;17.90;99.90;;;;;;5033785;28;20052;-66
2023/09/06 01:03:12;;;;;;;17.17;15.35;;;17.90;99.90;;;;;;5034694;28;20076;-68
2023/09/06 01:05:44;;;;;;;17.77;15.88;;;17.80;99.90;;;;;;5034735;28;20095;-68
2023/09/06 01:08:18;;;;;;;19.85;16.20;;;17.80;99.90;;;;;;5033787;28;20052;-66
2023/09/06 01:10:44;;;;;;;18.90;17.00;;;17.80;99.90;;;;;;5052254;28;20037;-66
2023/09/06 01:13:10;;;;;;;23.38;21.08;;;17.70;99.90;;;;;;5033463;28;20104;-66
2023/09/06 01:15:40;;;;;;;19.45;17.42;;;17.70;99.90;;;;;;5052076;28;20454;-66
2023/09/06 01:18:08;;;;;;;22.98;20.75;;;17.70;99.90;;;;;;5034844;28;20180;-66
2023/09/06 01:20:44;;;;;;;23.42;20.10;;;17.70;99.90;;;;;;5033537;28;20494;-66
2023/09/06 01:23:26;;;;;;;20.83;18.67;;;17.70;99.90;;;;;;5017020;28;20036;-66
2023/09/06 01:25:52;;;;;;;21.75;19.58;;;17.60;99.90;;;;;;5034210;28;20040;-66
2023/09/06 01:28:19;;;;;;;23.58;20.75;;;17.60;99.90;;;;;;5017014;28;20037;-66
2023/09/06 01:30:44;;;;;;;20.17;17.45;;;17.60;99.90;;;;;;5052107;28;20067;-66
2023/09/06 01:33:10;;;;;;;19.10;16.98;;;17.70;99.90;;;;;;5051920;28;20033;-67
2023/09/06 01:35:36;;;;;;;23.30;16.67;;;17.60;99.90;;;;;;5016924;28;20044;-66
2023/09/06 01:38:01;;;;;;;19.02;16.67;;;17.60;99.90;;;;;;5052062;28;20040;-66
2023/09/06 01:40:27;;;;;;;21.35;18.38;;;17.50;99.90;;;;;;5051788;28;20112;-66
2023/09/06 01:42:54;;;;;;;20.67;18.48;;;17.60;99.90;;;;;;5033631;28;20115;-67
2023/09/06 01:45:20;;;;;;;20.17;18.00;;;17.50;99.90;;;;;;5034101;28;20041;-66
2023/09/06 01:47:46;;;;;;;21.30;17.83;;;17.50;99.90;;;;;;5051659;28;20135;-66
2023/09/06 01:50:13;;;;;;;20.88;17.92;;;17.50;99.90;;;;;;5016517;28;20118;-66
2023/09/06 01:52:40;;;;;;;19.67;17.58;;;17.50;99.90;;;;;;5033729;28;20041;-67
2023/09/06 01:55:08;;;;;;;22.02;17.80;;;17.50;99.90;;;;;;5033964;28;20044;-66
2023/09/06 01:57:34;;;;;;;22.90;19.02;;;17.50;99.90;;;;;;5033299;28;20108;-66
2023/09/06 02:00:00;;;;;;;21.25;17.40;;;17.50;99.90;;;;;;5034072;28;20033;-66
2023/09/06 02:02:25;;;;;;;21.83;19.52;;;17.40;99.90;;;;;;5032785;28;20084;-66
2023/09/06 02:04:51;;;;;;;18.73;16.73;;;17.40;99.90;;;;;;5017163;28;20043;-66
2023/09/06 02:07:17;;;;;;;20.70;18.50;;;17.40;99.90;;;;;;5033709;28;20441;-66
2023/09/06 02:09:42;;;;;;;22.95;18.58;;;17.40;99.90;;;;;;5050646;28;20037;-66
2023/09/06 02:12:08;;;;;;;19.08;16.85;;;17.30;99.90;;;;;;5033477;28;20041;-66
2023/09/06 02:14:34;;;;;;;18.73;15.35;;;17.30;99.90;;;;;;5052176;28;20112;-66
2023/09/06 02:17:00;;;;;;;18.35;15.02;;;17.30;99.90;;;;;;5032938;28;20029;-66
2023/09/06 02:19:26;;;;;;;20.33;17.27;;;17.30;99.90;;;;;;5051419;28;20072;-66
2023/09/06 02:21:52;;;;;;;18.65;15.95;;;17.30;99.90;;;;;;5034027;28;20041;-67
2023/09/06 02:24:18;;;;;;;21.55;19.27;;;17.20;99.90;;;;;;5032907;28;20076;-66
2023/09/06 02:26:44;;;;;;;24.70;22.20;;;17.20;99.90;;;;;;5051217;28;20045;-67
2023/09/06 02:29:11;;;;;;;25.15;22.38;;;17.20;99.90;;;;;;5033609;28;20143;-67
2023/09/06 02:31:38;;;;;;;25.00;22.50;;;17.20;99.90;;;;;;5032901;28;20060;-66
2023/09/06 02:34:04;;;;;;;23.15;20.83;;;17.20;99.90;;;;;;5052235;28;20388;-66
2023/09/06 02:36:30;;;;;;;24.73;22.23;;;17.20;99.90;;;;;;5051155;28;20032;-66
2023/09/06 02:38:57;;;;;;;24.30;21.77;;;17.20;99.90;;;;;;5050702;28;20102;-66
2023/09/06 02:41:23;;;;;;;23.98;21.48;;;17.20;99.90;;;;;;5033433;28;20045;-67
2023/09/06 02:43:49;;;;;;;25.23;22.73;;;17.20;99.90;;;;;;5033360;28;20045;-68
2023/09/06 02:46:15;;;;;;;25.40;21.67;;;17.10;99.90;;;;;;5033383;28;20098;-66
2023/09/06 02:48:46;;;;;;;23.27;20.77;;;17.10;99.90;;;;;;5018239;28;20057;-66
2023/09/06 02:51:15;;;;;;;22.08;19.42;;;17.10;99.90;;;;;;5036955;28;20040;-66
2023/09/06 02:53:44;;;;;;;21.58;19.38;;;17.10;99.90;;;;;;5036262;28;20087;-66
2023/09/06 02:56:10;;;;;;;22.08;19.08;;;17.10;99.90;;;;;;5020905;28;20051;-66
2023/09/06 02:58:37;;;;;;;21.52;18.42;;;17.10;99.90;;;;;;5054039;28;20609;-68
2023/09/06 03:01:06;;;;;;;20.70;18.60;;;17.10;99.90;;;;;;5037542;28;20045;-66
2023/09/06 03:03:32;;;;;;;21.35;19.10;;;17.00;99.90;;;;;;5020640;28;20413;-66
2023/09/06 03:05:58;;;;;;;24.25;19.23;;;17.10;99.90;;;;;;5054090;28;20036;-66
2023/09/06 03:08:25;;;;;;;20.35;18.35;;;17.00;99.90;;;;;;5020074;28;20045;-66
2023/09/06 03:10:54;;;;;;;22.35;20.00;;;17.10;99.90;;;;;;5036598;28;20056;-66
2023/09/06 03:13:20;;;;;;;18.85;16.83;;;17.00;99.90;;;;;;5019275;28;20037;-68
2023/09/06 03:15:51;;;;;;;18.92;16.90;;;17.00;99.90;;;;;;5037002;28;20052;-68
2023/09/06 03:18:18;;;;;;;20.00;17.90;;;17.00;99.90;;;;;;5020240;28;20052;-66
2023/09/06 03:20:43;;;;;;;17.52;15.82;;;17.00;99.90;;;;;;5053555;28;20096;-66
2023/09/06 03:23:17;;;;;;;20.15;17.80;;;16.90;99.90;;;;;;5054048;28;20490;-66
2023/09/06 03:25:57;;;;;;;15.27;13.68;;;16.90;99.90;;;;;;5036585;28;20521;-66
2023/09/06 03:28:25;;;;;;;17.73;15.88;;;16.90;99.90;;;;;;5053720;28;20381;-66
2023/09/06 03:30:58;;;;;;;18.23;16.27;;;16.90;99.90;;;;;;5054339;28;20049;-66
2023/09/06 03:33:25;;;;;;;18.48;16.65;;;16.80;99.90;;;;;;5054095;28;20052;-66
2023/09/06 03:35:51;;;;;;;19.45;17.38;;;16.80;99.90;;;;;;5035476;28;20045;-66
2023/09/06 03:38:17;;;;;;;17.00;15.20;;;16.90;99.90;;;;;;5054152;28;20033;-66
2023/09/06 03:40:49;;;;;;;18.02;16.20;;;16.80;99.90;;;;;;5035969;28;20079;-66
2023/09/06 03:43:15;;;;;;;17.33;15.63;;;16.80;99.90;;;;;;5036774;28;20044;-68
2023/09/06 03:45:50;;;;;;;19.35;17.30;;;16.80;99.90;;;;;;5019444;28;20033;-68
2023/09/06 03:48:22;;;;;;;16.42;14.60;;;16.80;99.90;;;;;;5031758;28;20128;-68
2023/09/06 03:50:51;;;;;;;17.55;15.80;;;16.80;99.90;;;;;;5032606;28;20150;-66
2023/09/06 03:53:17;;;;;;;18.75;16.80;;;16.80;99.90;;;;;;5032849;28;20391;-66
2023/09/06 03:55:45;;;;;;;17.80;16.00;;;16.80;99.90;;;;;;5032883;28;20478;-66
2023/09/06 03:58:11;;;;;;;17.20;15.35;;;16.80;99.90;;;;;;5033132;28;20045;-66
2023/09/06 04:00:39;;;;;;;18.08;15.73;;;16.80;99.90;;;;;;5014828;28;20482;-66
2023/09/06 04:03:07;;;;;;;17.15;15.40;;;16.70;99.90;;;;;;5033318;28;20033;-66
2023/09/06 04:05:33;;;;;;;17.83;15.95;;;16.70;99.90;;;;;;5033588;28;20448;-66
2023/09/06 04:08:03;;;;;;;17.38;15.68;;;16.70;99.90;;;;;;5032479;28;20548;-66
2023/09/06 04:10:40;;;;;;;17.98;14.73;;;16.80;99.90;;;;;;5031203;28;20033;-66
2023/09/06 04:13:08;;;;;;;16.02;14.27;;;16.70;99.90;;;;;;5033490;28;20530;-66
2023/09/06 04:15:37;;;;;;;16.05;14.40;;;16.70;99.90;;;;;;5032262;28;20471;-65
2023/09/06 04:18:10;;;;;;;15.57;13.98;;;16.70;99.90;;;;;;5031753;28;20037;-66
2023/09/06 04:20:38;;;;;;;13.68;12.32;;;16.70;99.90;;;;;;5031953;28;20498;-66
2023/09/06 04:23:09;;;;;;;14.27;12.77;;;16.70;99.90;;;;;;5030400;28;20132;-66
2023/09/06 04:25:41;;;;;;;13.95;12.43;;;16.70;99.90;;;;;;5032219;28;20471;-68
2023/09/06 04:28:10;;;;;;;14.15;12.65;;;16.60;99.90;;;;;;5032136;28;20033;-68
2023/09/06 04:30:37;;;;;;;14.18;12.68;;;16.60;99.90;;;;;;5014531;28;20045;-68
2023/09/06 04:33:05;;;;;;;13.82;12.38;;;16.60;99.90;;;;;;5032107;28;20045;-66
2023/09/06 04:35:43;;;;;;;15.85;13.55;;;16.50;99.90;;;;;;5032892;28;20479;-65
2023/09/06 04:38:17;;;;;;;17.05;12.60;;;16.50;99.90;;;;;;5031227;28;20040;-66
2023/09/06 04:40:44;;;;;;;13.57;12.27;;;16.50;99.90;;;;;;5031944;28;20041;-66
2023/09/06 04:43:11;;;;;;;12.88;11.38;;;16.50;99.90;;;;;;5015060;28;20116;-68
2023/09/06 04:45:40;;;;;;;13.80;11.77;;;16.40;99.90;;;;;;5032115;28;20033;-66
2023/09/06 04:48:10;;;;;;;13.07;11.70;;;16.40;99.90;;;;;;5034702;28;20470;-66
2023/09/06 04:50:39;;;;;;;15.05;12.45;;;16.40;99.90;;;;;;5034749;28;20041;-66
2023/09/06 04:53:07;;;;;;;13.68;10.80;;;16.40;99.90;;;;;;5052136;28;20036;-66
2023/09/06 04:55:35;;;;;;;12.60;11.15;;;16.40;99.90;;;;;;5052951;28;20450;-66
2023/09/06 04:58:19;;;;;;;12.10;10.80;;;16.40;99.90;;;;;;5035246;28;20482;-66
2023/09/06 05:00:47;;;;;;;13.05;11.65;;;16.30;99.90;;;;;;5018276;28;20048;-66
2023/09/06 05:03:17;;;;;;;12.57;11.05;;;16.40;99.90;;;;;;5052493;28;20392;-68
2023/09/06 05:05:47;;;;;;;12.23;11.02;;;16.30;99.90;;;;;;5033811;28;20045;-68
2023/09/06 05:08:13;;;;;;;12.52;11.00;;;16.40;99.90;;;;;;5034773;28;20083;-68
2023/09/06 05:10:41;;;;;;;12.20;9.85;;;16.30;99.90;;;;;;5052154;28;20032;-68
2023/09/06 05:13:07;;;;;;;16.52;11.77;;;16.40;99.90;;;;;;5016351;28;20041;-68
2023/09/06 05:15:35;;;;;;;15.38;11.68;;;16.30;99.90;;;;;;5034372;28;20052;-68
2023/09/06 05:18:01;;;;;;;14.07;11.88;;;16.40;99.90;;;;;;5018062;28;20037;-68
2023/09/06 05:20:28;;;;;;;12.05;10.70;;;16.30;99.90;;;;;;5034226;28;20052;-66
2023/09/06 05:22:57;;;;;;;12.35;10.10;;;16.30;99.90;;;;;;5034812;28;20432;-66
2023/09/06 05:25:24;;;;;;;12.68;11.38;;;16.40;99.90;;;;;;5052341;28;20060;-66
2023/09/06 05:27:51;;;;;;;11.52;10.38;;;16.30;99.90;;;;;;5033584;28;20041;-67
2023/09/06 05:30:17;;;;;;;12.43;10.75;;;16.40;99.90;;;;;;5052060;28;20052;-68
2023/09/06 05:32:43;;;;;;;11.90;10.40;;;16.40;99.90;;;;;;5051553;28;20045;-66
2023/09/06 05:35:09;;;;;;;11.13;9.73;;;16.40;99.90;;;;;;5051571;28;20112;-66
2023/09/06 05:37:35;;;;;;;12.05;10.30;;;16.50;99.90;;;;;;5034954;28;20067;-66
2023/09/06 05:40:04;;;;;;;13.65;9.82;;;16.50;99.90;;;;;;5052108;28;20120;-66
2023/09/06 05:42:30;;;;;;;12.75;10.45;;;16.40;99.90;;;;;;5050086;28;20092;-68
2023/09/06 05:44:56;;;;;;;11.45;10.25;;;16.50;99.90;;;;;;5052082;28;20049;-66
2023/09/06 05:47:22;;;;;;;12.18;10.00;;;16.50;99.90;;;;;;5033175;28;20053;-66
2023/09/06 05:49:51;;;;;;;12.07;9.30;;;16.50;99.90;;;;;;5046761;28;20049;-66
2023/09/06 05:52:17;;;;;;;13.60;10.63;;;16.60;99.90;;;;;;5012437;28;20049;-65
2023/09/06 05:54:48;;;;;;;12.07;9.13;;;16.60;99.90;;;;;;5026656;28;20088;-67
2023/09/06 05:57:14;;;;;;;10.65;8.68;;;16.60;99.90;;;;;;5049260;28;20041;-67
2023/09/06 05:59:40;;;;;;;14.15;9.52;;;16.70;99.90;;;;;;5030615;28;20140;-67
2023/09/06 06:02:07;;;;;;;11.57;9.85;;;16.80;99.90;;;;;;5030454;28;20501;-67
2023/09/06 06:04:32;;;;;;;12.25;8.82;;;16.80;99.90;;;;;;5031140;28;20059;-67
2023/09/06 06:06:58;;;;;;;11.30;8.65;;;16.80;99.90;;;;;;5031265;28;20115;-65
2023/09/06 06:09:25;;;;;;;13.52;9.07;;;16.90;99.90;;;;;;5029827;28;20451;-66
2023/09/06 06:11:54;;;;;;;8.65;7.47;;;16.90;99.90;;;;;;5031179;28;20470;-66
2023/09/06 06:14:20;;;;;;;10.75;7.95;;;17.00;99.90;;;;;;5028701;28;20532;-65
2023/09/06 06:16:46;;;;;;;11.35;8.77;;;17.10;99.90;;;;;;5030765;28;20087;-66
2023/09/06 06:19:12;;;;;;;12.32;7.40;;;17.10;99.90;;;;;;5031143;28;20033;-64
2023/09/06 06:21:39;;;;;;;11.90;8.90;;;17.20;99.90;;;;;;5049088;28;20045;-65
2023/09/06 06:24:09;;;;;;;9.65;7.95;;;17.20;99.90;;;;;;5032199;28;20048;-65
2023/09/06 06:26:35;;;;;;;11.52;9.15;;;17.30;99.90;;;;;;5034469;28;20055;-65
2023/09/06 06:29:01;;;;;;;9.85;8.45;;;17.30;99.90;;;;;;5035464;28;20464;-66
2023/09/06 06:31:27;;;;;;;10.57;8.60;;;17.40;99.90;;;;;;5050025;28;20070;-66
2023/09/06 06:33:54;;;;;;;12.93;9.30;;;17.50;99.90;;;;;;5019522;28;20036;-66
2023/09/06 06:36:19;;;;;;;8.68;7.25;;;17.50;99.90;;;;;;5019794;28;20482;-66
2023/09/06 06:38:48;;;;;;;10.80;8.13;;;17.60;99.90;;;;;;5033513;28;20097;-65
2023/09/06 06:41:20;;;;;;;10.15;7.57;;;17.70;99.90;;;;;;5017098;28;20049;-65
2023/09/06 06:43:49;;;;;;;9.70;7.55;;;17.80;99.90;;;;;;5027983;28;20041;-65
2023/09/06 06:46:29;;;;;;;11.85;8.35;;;17.80;99.90;;;;;;5052005;28;20090;-65
2023/09/06 06:48:56;;;;;;;10.52;8.25;;;17.90;99.90;;;;;;5034225;28;20063;-66
2023/09/06 06:51:25;;;;;;;10.40;8.00;;;18.00;99.90;;;;;;5051222;28;20041;-65
2023/09/06 06:53:50;;;;;;;11.02;7.75;;;18.10;99.90;;;;;;5034335;28;20041;-65
2023/09/06 06:56:21;;;;;;;9.50;7.60;;;18.10;99.90;;;;;;5017744;28;20452;-66
2023/09/06 06:58:48;;;;;;;9.82;6.95;;;18.20;99.90;;;;;;5033223;28;20041;-66
2023/09/06 07:01:14;;;;;;;10.27;7.28;;;18.30;99.90;;;;;;5033591;28;20049;-65
2023/09/06 07:03:40;;;;;;;10.75;7.47;;;18.40;99.90;;;;;;5050422;28;20116;-68
2023/09/06 07:06:12;;;;;;;10.40;6.40;;;18.50;99.90;;;;;;5051346;28;20052;-68
2023/09/06 07:08:37;;;;;;;9.07;6.97;;;18.70;99.90;;;;;;5033842;28;20065;-68
2023/09/06 07:11:04;;;;;;;9.80;6.10;;;18.80;99.90;;;;;;5017199;28;20080;-68
2023/09/06 07:13:31;;;;;;;10.40;5.70;;;18.90;99.90;;;;;;5028998;28;20037;-68
2023/09/06 07:15:56;;;;;;;7.90;5.50;;;19.00;99.90;;;;;;5014888;28;20091;-68
2023/09/06 07:18:22;;;;;;;12.23;6.20;;;19.10;99.90;;;;;;5050783;28;20429;-69
2023/09/06 07:20:48;;;;;;;7.85;5.47;;;19.20;99.90;;;;;;5032086;28;20047;-67
2023/09/06 07:23:14;;;;;;;8.15;5.07;;;19.30;99.90;;;;;;5049370;28;20178;-69
2023/09/06 07:25:44;;;;;;;7.07;4.68;;;19.40;99.90;;;;;;5031411;28;20048;-67
2023/09/06 07:28:10;;;;;;;8.68;5.15;;;19.50;99.90;;;;;;5032298;28;20112;-66
2023/09/06 07:30:38;;;;;;;9.35;5.85;;;19.60;99.90;;;;;;5033265;28;20053;-66
2023/09/06 07:33:05;;;;;;;7.38;5.00;;;19.70;99.90;;;;;;5029588;28;20060;-68
2023/09/06 07:35:30;;;;;;;8.50;4.88;;;19.80;99.90;;;;;;5035064;28;20047;-67
2023/09/06 07:37:56;;;;;;;9.00;4.50;;;19.90;99.90;;;;;;5035085;28;20497;-67
2023/09/06 07:40:22;;;;;;;10.40;5.15;;;20.00;99.90;;;;;;5035043;28;20082;-67
2023/09/06 07:42:48;;;;;;;7.93;4.55;;;20.10;99.90;;;;;;5053819;28;20056;-69
2023/09/06 07:45:14;;;;;;;10.95;4.68;;;20.20;99.90;;;;;;5018818;28;20048;-66
2023/09/06 07:47:40;;;;;;;7.10;4.25;;;20.20;99.90;;;;;;5034992;28;20053;-66
2023/09/06 07:50:08;;;;;;;9.18;5.60;;;20.30;99.90;;;;;;5053949;28;20060;-66
2023/09/06 07:52:35;;;;;;;8.52;4.85;;;20.40;99.90;;;;;;5035884;28;20502;-65
2023/09/06 07:55:00;;;;;;;9.02;4.93;;;20.50;99.90;;;;;;5052810;28;20433;-66
2023/09/06 07:57:26;;;;;;;9.15;4.07;;;20.60;99.90;;;;;;5053553;28;20041;-65
2023/09/06 07:59:52;;;;;;;6.63;3.67;;;20.70;99.90;;;;;;5020072;28;20032;-65
2023/09/06 08:02:17;;;;;;;9.70;4.28;;;20.80;99.90;;;;;;5034943;28;20425;-66
2023/09/06 08:04:43;;;;;;;14.40;5.03;;;20.90;99.90;;;;;;5035754;28;20084;-67
2023/09/06 08:07:09;;;;;;;7.68;3.55;;;20.90;99.90;;;;;;5053318;28;20382;-66
2023/09/06 08:09:35;;;;;;;9.63;4.85;;;21.00;99.90;;;;;;5034545;28;20128;-66
2023/09/06 08:12:03;;;;;;;10.20;4.45;;;21.00;99.90;;;;;;5053026;28;20037;-66
2023/09/06 08:14:30;;;;;;;9.18;4.22;;;21.00;99.90;;;;;;5033180;28;20050;-66
2023/09/06 08:16:55;;;;;;;8.10;3.95;;;21.10;99.90;;;;;;5015492;28;20406;-66
2023/09/06 08:19:21;;;;;;;7.10;4.32;;;21.10;99.90;;;;;;5033330;28;20037;-65
2023/09/06 08:21:47;;;;;;;12.02;4.20;;;21.20;99.90;;;;;;5033351;28;21126;-66
2023/09/06 08:24:13;;;;;;;6.25;3.97;;;21.30;99.90;;;;;;5014897;28;20049;-66
2023/09/06 08:26:39;;;;;;;7.97;4.10;;;21.40;99.90;;;;;;5033032;28;20486;-66
2023/09/06 08:29:05;;;;;;;7.05;4.25;;;21.40;99.90;;;;;;5015081;28;20045;-66
2023/09/06 08:31:32;;;;;;;6.43;4.28;;;21.50;99.90;;;;;;5015355;28;20187;-65
2023/09/06 08:33:58;;;;;;;7.10;3.75;;;21.50;99.90;;;;;;5033195;28;20486;-66
2023/09/06 08:36:24;;;;;;;8.20;3.97;;;21.50;99.90;;;;;;5014495;28;20045;-66
2023/09/06 08:38:49;;;;;;;8.60;4.50;;;21.60;99.90;;;;;;5032820;28;20533;-66
2023/09/06 08:41:15;;;;;;;7.72;4.07;;;21.70;99.90;;;;;;4998626;28;20045;-65
2023/09/06 08:43:44;;;;;;;7.32;4.10;;;21.70;99.90;;;;;;5014310;28;20408;-66
2023/09/06 08:46:41;;;;;;;9.95;4.30;;;21.80;99.90;;;;;;5032130;28;20494;-65
2023/09/06 08:49:08;;;;;;;7.53;4.38;;;21.90;99.90;;;;;;5032792;28;20171;-66
2023/09/06 08:51:35;;;;;;;7.40;3.72;;;22.00;99.90;;;;;;5013917;28;20050;-66
2023/09/06 08:54:04;;;;;;;7.45;3.92;;;22.20;99.90;;;;;;5032781;28;20048;-66
2023/09/06 08:56:32;;;;;;;8.10;4.00;;;22.20;99.90;;;;;;5032425;28;20045;-66
2023/09/06 08:58:59;;;;;;;6.50;3.30;;;22.30;99.90;;;;;;5032064;28;20117;-67
2023/09/06 09:01:25;;;;;;;6.20;3.50;;;22.40;99.90;;;;;;5032615;28;20041;-67
2023/09/06 09:03:51;;;;;;;6.45;3.70;;;22.40;99.90;;;;;;4998350;28;20528;-66
2023/09/06 09:06:17;;;;;;;6.38;4.03;;;22.50;99.90;;;;;;5013974;28;20049;-67
2023/09/06 09:08:43;;;;;;;7.47;3.78;;;22.60;99.90;;;;;;5014636;28;20063;-66
2023/09/06 09:11:09;;;;;;;6.93;3.55;;;22.60;99.90;;;;;;5014765;28;20050;-67
2023/09/06 09:13:35;;;;;;;5.70;3.75;;;22.70;99.90;;;;;;5013764;28;20120;-67
2023/09/06 09:16:07;;;;;;;6.75;4.05;;;22.70;99.90;;;;;;5014936;28;20124;-67
2023/09/06 09:18:34;;;;;;;7.25;3.30;;;22.80;99.90;;;;;;5013616;28;20133;-66
2023/09/06 09:21:02;;;;;;;7.05;4.00;;;22.90;99.90;;;;;;5014606;28;20103;-67
2023/09/06 09:23:29;;;;;;;8.75;3.40;;;23.00;99.90;;;;;;5014139;28;20466;-67
2023/09/06 09:25:54;;;;;;;7.93;4.22;;;23.00;99.90;;;;;;5013946;28;20120;-66
2023/09/06 09:28:21;;;;;;;8.10;3.75;;;23.00;99.90;;;;;;5014377;28;20461;-66
2023/09/06 09:30:48;;;;;;;6.60;3.72;;;23.20;99.90;;;;;;5014228;28;20064;-66
2023/09/06 09:33:14;;;;;;;7.22;3.58;;;23.20;99.90;;;;;;5031151;28;20037;-66
2023/09/06 09:35:40;;;;;;;6.63;3.75;;;23.30;99.90;;;;;;5031780;28;20545;-66
2023/09/06 09:38:10;;;;;;;6.82;2.83;;;23.30;99.90;;;;;;5014587;28;20052;-66
2023/09/06 09:40:37;;;;;;;8.10;4.53;;;23.40;99.90;;;;;;5013801;28;20041;-67
2023/09/06 09:43:04;;;;;;;9.63;3.78;;;23.50;99.90;;;;;;5014510;28;20133;-66
2023/09/06 09:45:45;;;;;;;6.82;3.17;;;23.60;99.90;;;;;;5014265;28;20064;-67
2023/09/06 09:48:12;;;;;;;5.50;2.97;;;23.70;99.90;;;;;;5013157;28;20103;-66
2023/09/06 09:50:41;;;;;;;8.13;4.03;;;23.70;99.90;;;;;;4997763;28;20041;-67
2023/09/06 09:53:11;;;;;;;8.73;3.38;;;23.80;99.90;;;;;;5014281;28;20068;-66
2023/09/06 09:55:44;;;;;;;6.85;3.92;;;23.80;99.90;;;;;;5031149;28;20042;-67
2023/09/06 09:58:11;;;;;;;6.18;3.00;;;23.90;99.90;;;;;;5031918;28;20099;-67
2023/09/06 10:00:39;;;;;;;7.45;3.85;;;24.00;99.90;;;;;;5035018;28;20095;-66
2023/09/06 10:03:05;;;;;;;6.10;3.53;;;24.10;99.90;;;;;;5018250;28;20041;-67
2023/09/06 10:05:31;;;;;;;8.88;4.35;;;24.20;99.90;;;;;;5018050;28;20040;-66
2023/09/06 10:08:00;;;;;;;6.97;3.55;;;24.20;99.90;;;;;;5017800;28;20095;-66
2023/09/06 10:10:27;;;;;;;6.25;3.50;;;24.30;99.90;;;;;;5017923;28;20041;-67
2023/09/06 10:12:53;;;;;;;8.48;3.60;;;24.30;99.90;;;;;;5018181;28;20514;-66
2023/09/06 10:15:23;;;;;;;7.93;3.50;;;24.40;99.90;;;;;;5016865;28;20049;-67
2023/09/06 10:17:50;;;;;;;9.50;3.33;;;24.50;99.90;;;;;;5017986;28;20116;-66
2023/09/06 10:20:16;;;;;;;8.02;3.35;;;24.50;99.90;;;;;;5017756;28;20176;-67
2023/09/06 10:22:43;;;;;;;7.13;3.35;;;24.50;99.90;;;;;;5000683;28;20049;-67
2023/09/06 10:25:10;;;;;;;8.45;3.13;;;24.60;99.90;;;;;;5017796;28;20052;-66
2023/09/06 10:27:54;;;;;;;6.43;3.08;;;24.60;99.90;;;;;;5035359;28;20044;-67
2023/09/06 10:30:44;;;;;;;5.72;2.67;;;24.70;99.90;;;;;;5016916;28;20056;-66
2023/09/06 10:33:33;;;;;;;6.47;2.92;;;24.70;99.90;;;;;;5017627;28;20053;-66
2023/09/06 10:36:03;;;;;;;4.90;2.72;;;24.80;99.90;;;;;;5025114;28;20561;-67
2023/09/06 10:38:30;;;;;;;8.02;3.17;;;24.90;99.90;;;;;;5001021;28;20140;-67
2023/09/06 10:40:56;;;;;;;5.25;2.78;;;24.90;99.90;;;;;;5035660;28;20064;-66
2023/09/06 10:43:28;;;;;;;5.55;2.90;;;25.00;99.90;;;;;;5016582;28;20421;-67
2023/09/06 10:46:08;;;;;;;5.88;3.20;;;25.10;99.90;;;;;;5035255;28;20042;-67
2023/09/06 10:48:34;;;;;;;4.85;2.55;;;25.10;99.90;;;;;;5034645;28;20056;-66
2023/09/06 10:51:04;;;;;;;5.40;2.47;;;25.10;99.90;;;;;;5016673;28;20045;-67
2023/09/06 10:53:30;;;;;;;6.10;3.15;;;25.20;99.90;;;;;;5016983;28;20037;-67
2023/09/06 10:55:56;;;;;;;6.15;3.03;;;25.30;99.90;;;;;;5017696;28;20048;-66
2023/09/06 10:58:26;;;;;;;4.82;2.63;;;25.30;99.90;;;;;;5016611;28;20049;-66
2023/09/06 11:01:17;;;;;;;7.35;3.33;;;25.40;99.90;;;;;;5034702;28;20418;-67
2023/09/06 11:04:11;;;;;;;6.68;2.72;;;25.40;99.90;;;;;;5016939;28;20049;-66
2023/09/06 11:06:52;;;;;;;6.70;2.60;;;25.50;99.90;;;;;;5016919;28;20048;-66
2023/09/06 11:09:18;;;;;;;5.47;2.30;;;25.60;99.90;;;;;;5016136;28;20030;-67
2023/09/06 11:11:51;;;;;;;7.72;2.80;;;25.80;99.90;;;;;;5033881;28;20041;-67
2023/09/06 11:14:16;;;;;;;4.72;2.38;;;25.90;99.90;;;;;;5017051;28;20375;-67
2023/09/06 11:16:48;;;;;;;5.05;2.33;;;26.00;99.90;;;;;;5034413;28;20082;-67
2023/09/06 11:19:13;;;;;;;6.10;2.58;;;26.00;99.90;;;;;;5015900;28;20041;-67
2023/09/06 11:21:39;;;;;;;6.38;2.40;;;26.00;99.90;;;;;;5016927;28;20048;-67
2023/09/06 11:24:05;;;;;;;5.93;2.53;;;26.00;99.90;;;;;;5016909;28;20037;-67
2023/09/06 11:26:37;;;;;;;4.50;2.40;;;26.00;99.90;;;;;;4999416;28;20052;-67
2023/09/06 11:29:08;;;;;;;4.57;2.08;;;26.10;99.90;;;;;;5034560;28;20041;-67
2023/09/06 11:31:34;;;;;;;4.68;2.58;;;26.20;99.90;;;;;;5000058;28;20033;-67
2023/09/06 11:34:04;;;;;;;5.38;2.38;;;26.20;99.90;;;;;;5015896;28;20120;-67
2023/09/06 11:36:32;;;;;;;5.78;2.45;;;26.30;99.90;;;;;;5000020;28;20394;-67
2023/09/06 11:39:21;;;;;;;6.75;2.90;;;26.40;99.90;;;;;;5016511;28;20045;-67
2023/09/06 11:41:48;;;;;;;4.72;2.05;;;26.40;99.90;;;;;;5016526;28;20053;-67
2023/09/06 11:44:17;;;;;;;4.32;2.00;;;26.50;99.90;;;;;;5033878;28;20037;-67
2023/09/06 11:46:43;;;;;;;7.32;2.40;;;26.50;99.90;;;;;;5011906;28;20053;-67
2023/09/06 11:49:11;;;;;;;4.03;2.13;;;26.50;99.90;;;;;;5012899;28;20137;-67
2023/09/06 11:51:37;;;;;;;4.70;2.03;;;26.50;99.90;;;;;;5014149;28;20042;-67
2023/09/06 11:54:09;;;;;;;5.40;2.45;;;26.60;99.90;;;;;;5013580;28;20434;-67
2023/09/06 11:56:38;;;;;;;5.43;2.30;;;26.80;99.90;;;;;;5014072;28;20048;-67
2023/09/06 11:59:12;;;;;;;4.55;2.03;;;26.80;99.90;;;;;;5013259;28;20454;-67
2023/09/06 12:01:43;;;;;;;5.30;1.73;;;26.90;99.90;;;;;;5011977;28;20053;-67
2023/09/06 12:04:16;;;;;;;4.93;2.28;;;26.90;99.90;;;;;;5013917;28;20050;-67
2023/09/06 12:06:41;;;;;;;3.35;1.60;;;26.90;99.90;;;;;;5012925;28;20089;-67
2023/09/06 12:09:12;;;;;;;4.40;2.22;;;27.00;99.90;;;;;;4995435;28;20084;-67
2023/09/06 12:11:38;;;;;;;4.43;2.08;;;27.00;99.80;;;;;;5012341;28;20065;-67
2023/09/06 12:14:04;;;;;;;6.78;2.28;;;27.10;99.30;;;;;;5012550;28;20053;-67
2023/09/06 12:16:31;;;;;;;3.40;1.77;;;27.10;99.00;;;;;;5011234;28;20132;-67
2023/09/06 12:18:56;;;;;;;5.35;1.95;;;27.10;98.60;;;;;;5012551;28;20073;-64
2023/09/06 12:21:22;;;;;;;6.28;2.47;;;27.10;98.40;;;;;;5011855;28;20386;-64
2023/09/06 12:23:48;;;;;;;4.32;2.38;;;27.20;97.50;;;;;;5013554;28;20052;-64
2023/09/06 12:26:16;;;;;;;3.58;1.58;;;27.30;98.00;;;;;;5012135;28;20134;-64
2023/09/06 12:28:42;;;;;;;4.43;2.28;;;27.30;98.10;;;;;;5011246;28;20120;-64
2023/09/06 12:31:08;;;;;;;4.32;2.15;;;27.40;97.50;;;;;;5011847;28;20129;-64
2023/09/06 12:33:33;;;;;;;4.47;2.08;;;27.40;97.30;;;;;;5013353;28;20463;-64
2023/09/06 12:36:00;;;;;;;5.47;2.20;;;27.40;97.00;;;;;;5011828;28;20042;-64
2023/09/06 12:38:27;;;;;;;5.10;2.08;;;27.40;96.90;;;;;;5012067;28;20125;-64
2023/09/06 12:40:53;;;;;;;5.78;2.05;;;27.50;96.60;;;;;;5013498;28;20402;-64